Time;durP1;ratioP1;P1;durP2;ratioP2;P2;SDS_P1;SDS_P2;PMS_P1;PMS_P2;Temp;Humidity;BMP_temperature;BMP_pressure;BME280_temperature;BME280_humidity;BME280_pressure;Samples;Min_cycle;Max_cycle;Signal;HPM_P1;HPM_P2
2022/04/19 00:01:43;;;;;;;0.40;0.30;;;;;;;7.03;58.28;101058.22;5053881;28;20466;-73
2022/04/19 00:04:09;;;;;;;0.40;0.30;;;;;;;7.04;58.49;101049.09;5055549;28;20489;-71
2022/04/19 00:06:36;;;;;;;0.40;0.30;;;;;;;7.00;58.14;101050.69;5054366;28;20478;-71
2022/04/19 00:09:03;;;;;;;0.40;0.30;;;;;;;6.95;58.58;101053.34;5053345;28;20486;-71
2022/04/19 00:11:31;;;;;;;0.40;0.30;;;;;;;7.00;58.73;101042.59;5054392;28;20443;-72
2022/04/19 00:13:57;;;;;;;0.40;0.30;;;;;;;6.95;59.58;101045.25;5054582;28;20443;-72
2022/04/19 00:16:24;;;;;;;0.40;0.30;;;;;;;6.98;58.99;101039.34;5054527;28;20482;-71
2022/04/19 00:18:50;;;;;;;0.40;0.30;;;;;;;6.86;59.71;101038.78;5054623;28;20945;-71
2022/04/19 00:21:18;;;;;;;0.40;0.30;;;;;;;6.82;59.27;101038.53;5054365;28;20462;-71
2022/04/19 00:23:46;;;;;;;0.40;0.30;;;;;;;6.81;59.48;101032.28;5053226;28;20512;-70
2022/04/19 00:26:12;;;;;;;0.67;0.67;;;;;;;6.78;59.37;101030.16;5054110;28;20489;-65
2022/04/19 00:28:41;;;;;;;0.40;0.30;;;;;;;6.77;60.30;101035.78;5051858;28;21066;-64
2022/04/19 00:31:08;;;;;;;0.40;0.30;;;;;;;6.76;60.47;101031.47;5054526;28;20497;-69
2022/04/19 00:33:38;;;;;;;0.40;0.30;;;;;;;6.65;60.38;101036.03;5054498;28;20965;-69
2022/04/19 00:36:06;;;;;;;0.40;0.30;;;;;;;6.55;61.04;101030.59;5053676;28;21020;-70
2022/04/19 00:38:32;;;;;;;0.40;0.30;;;;;;;6.49;61.80;101026.28;5053132;28;20465;-69
2022/04/19 00:40:58;;;;;;;0.40;0.30;;;;;;;6.45;61.33;101020.59;5054583;28;20441;-70
2022/04/19 00:43:26;;;;;;;0.40;0.30;;;;;;;6.29;62.53;101025.13;5053158;28;20477;-71
2022/04/19 00:45:54;;;;;;;0.40;0.30;;;;;;;6.35;63.32;101025.13;5053278;28;20490;-71
2022/04/19 00:48:21;;;;;;;0.40;0.30;;;;;;;6.39;63.22;101027.03;5054410;28;20473;-70
2022/04/19 00:50:50;;;;;;;0.40;0.30;;;;;;;6.44;64.10;101024.38;5053159;28;20549;-72
2022/04/19 00:53:17;;;;;;;0.40;0.30;;;;;;;6.49;63.98;101026.28;5047038;28;20470;-70
2022/04/19 00:55:43;;;;;;;0.40;0.30;;;;;;;6.50;63.76;101025.19;5054579;28;20445;-71
2022/04/19 00:58:11;;;;;;;0.40;0.30;;;;;;;6.57;63.56;101026.56;5052937;28;20467;-70
2022/04/19 01:00:38;;;;;;;0.40;0.30;;;;;;;6.68;63.24;101016.66;5056957;28;21070;-71
2022/04/19 01:03:05;;;;;;;0.40;0.30;;;;;;;6.69;63.19;101017.47;5053256;28;20454;-71
2022/04/19 01:05:32;;;;;;;0.40;0.30;;;;;;;6.68;63.80;101023.91;5052508;28;20486;-70
2022/04/19 01:07:58;;;;;;;0.40;0.30;;;;;;;6.68;64.08;101013.94;5054158;28;20453;-71
2022/04/19 01:10:25;;;;;;;0.40;0.30;;;;;;;6.71;63.55;101015.31;5054213;28;20480;-70
2022/04/19 01:15:37;;;;;;;0.40;0.30;;;;;;;6.72;64.28;101025.81;5040718;28;20442;-70
2022/04/19 01:18:07;;;;;;;0.40;0.30;;;;;;;6.65;63.54;101019.06;5053443;28;20451;-69
2022/04/19 01:20:36;;;;;;;0.40;0.30;;;;;;;6.65;63.35;101014.50;5051778;28;20854;-68
2022/04/19 01:23:04;;;;;;;38.90;8.00;;;;;;;6.55;64.28;101009.06;5052667;28;20548;-68
2022/04/19 01:25:30;;;;;;;0.80;0.80;;;;;;;6.55;63.32;101017.13;5050086;28;20485;-69
2022/04/19 01:27:57;;;;;;;0.40;0.30;;;;;;;6.44;63.64;101015.50;5051018;28;20457;-68
2022/04/19 01:30:24;;;;;;;0.40;0.30;;;;;;;6.40;65.10;101001.75;5050150;28;20463;-68
2022/04/19 01:32:50;;;;;;;0.40;0.30;;;;;;;6.37;64.87;101007.63;5049681;28;20474;-68
2022/04/19 01:35:19;;;;;;;0.40;0.30;;;;;;;6.32;65.41;101000.34;5053939;28;20442;-68
2022/04/19 01:37:47;;;;;;;0.40;0.30;;;;;;;6.35;65.19;101004.41;5051596;28;20482;-68
2022/04/19 01:40:19;;;;;;;0.40;0.30;;;;;;;6.38;64.88;101003.09;5052935;28;20458;-66
2022/04/19 01:42:48;;;;;;;0.40;0.30;;;;;;;6.31;65.10;100998.75;5053383;28;20427;-68
2022/04/19 01:45:15;;;;;;;0.40;0.30;;;;;;;6.24;66.06;100998.19;5051724;28;20517;-68
2022/04/19 01:47:42;;;;;;;3.60;1.60;;;;;;;6.32;67.33;100994.16;5052742;28;20548;-67
2022/04/19 01:50:11;;;;;;;0.40;0.30;;;;;;;6.23;68.05;101006.50;5051386;28;20458;-68
2022/04/19 01:52:38;;;;;;;0.40;0.30;;;;;;;6.31;68.45;101009.50;5053485;28;20454;-68
2022/04/19 01:55:07;;;;;;;0.40;0.30;;;;;;;6.39;68.04;101000.13;5052763;28;20458;-68
2022/04/19 01:57:35;;;;;;;0.40;0.30;;;;;;;6.46;67.90;100995.34;5052499;28;20482;-68
2022/04/19 02:00:02;;;;;;;0.40;0.30;;;;;;;6.39;67.24;100996.63;5050961;28;20868;-68
2022/04/19 02:02:29;;;;;;;0.40;0.30;;;;;;;6.46;67.32;100995.34;5049692;28;20481;-68
2022/04/19 02:04:55;;;;;;;0.40;0.30;;;;;;;6.34;66.67;100991.25;5050811;28;20490;-68
2022/04/19 02:07:22;;;;;;;0.40;0.30;;;;;;;6.42;67.32;100988.03;5050924;28;21011;-68
2022/04/19 02:09:48;;;;;;;0.40;0.30;;;;;;;6.38;67.55;100997.72;5049872;28;21010;-69
2022/04/19 02:12:15;;;;;;;0.40;0.30;;;;;;;6.42;67.24;100988.84;5051981;28;20465;-69
2022/04/19 02:14:42;;;;;;;0.40;0.30;;;;;;;6.47;66.51;100985.38;5050663;28;20837;-69
2022/04/19 02:17:10;;;;;;;0.40;0.30;;;;;;;6.35;65.90;100977.50;5052268;28;20516;-70
2022/04/19 02:19:36;;;;;;;0.40;0.30;;;;;;;6.26;64.71;100969.13;5048649;28;20876;-71
2022/04/19 02:22:03;;;;;;;0.40;0.30;;;;;;;6.26;65.30;100982.59;5050654;28;20463;-68
2022/04/19 02:24:30;;;;;;;0.40;0.30;;;;;;;6.23;65.62;100983.09;5050857;28;20462;-68
2022/04/19 02:26:57;;;;;;;0.40;0.30;;;;;;;6.26;64.97;100982.59;5049735;28;20773;-68
2022/04/19 02:29:25;;;;;;;0.40;0.30;;;;;;;6.23;65.75;100980.41;5050583;28;20454;-69
2022/04/19 02:31:52;;;;;;;0.40;0.30;;;;;;;6.10;66.00;100985.47;5049301;28;20524;-68
2022/04/19 02:34:19;;;;;;;0.40;0.30;;;;;;;6.09;65.52;100986.53;5052299;28;20466;-69
2022/04/19 02:36:46;;;;;;;0.40;0.30;;;;;;;6.10;66.54;100986.25;5049128;28;20474;-66
2022/04/19 02:39:12;;;;;;;0.40;0.30;;;;;;;6.04;66.52;100990.00;5052045;28;20448;-69
2022/04/19 02:41:39;;;;;;;0.40;0.30;;;;;;;6.06;66.01;100987.84;5048554;28;20466;-69
2022/04/19 02:44:08;;;;;;;0.40;0.30;;;;;;;6.06;67.65;100985.16;5051306;28;20480;-71
2022/04/19 02:46:35;;;;;;;0.40;0.30;;;;;;;6.09;67.91;100986.53;5051186;28;20486;-69
2022/04/19 02:49:04;;;;;;;0.40;0.30;;;;;;;6.10;68.36;100996.22;5050640;28;20474;-69
2022/04/19 02:51:31;;;;;;;0.40;0.30;;;;;;;6.06;68.62;100990.53;5050329;28;20462;-69
2022/04/19 02:53:58;;;;;;;0.40;0.30;;;;;;;6.03;68.63;100975.75;5050064;28;20485;-69
2022/04/19 02:56:24;;;;;;;0.40;0.30;;;;;;;6.05;67.84;100975.50;5050041;28;20477;-69
2022/04/19 02:58:51;;;;;;;0.40;0.30;;;;;;;6.01;68.15;100972.50;5050079;28;21024;-69
2022/04/19 03:01:18;;;;;;;0.40;0.30;;;;;;;6.02;68.65;100971.47;5050499;28;20458;-69
2022/04/19 03:03:45;;;;;;;0.40;0.30;;;;;;;5.95;69.30;100978.94;5051425;28;20466;-69
2022/04/19 03:08:57;;;;;;;0.40;0.30;;;;;;;6.01;68.97;100982.44;5026230;28;20972;-72
2022/04/19 03:11:24;;;;;;;1.87;1.77;;;;;;;5.87;69.13;100976.69;5029741;28;20477;-73
2022/04/19 03:13:50;;;;;;;0.40;0.30;;;;;;;5.85;69.36;100980.72;5019301;28;20842;-76
2022/04/19 03:16:17;;;;;;;0.40;0.30;;;;;;;5.83;68.48;100965.66;5029608;28;20459;-73
2022/04/19 03:18:44;;;;;;;0.40;0.30;;;;;;;5.77;68.82;100974.75;5034641;28;20486;-74
2022/04/19 03:21:10;;;;;;;0.40;0.30;;;;;;;5.73;68.19;100973.66;5034762;28;20474;-74
2022/04/19 03:29:08;;;;;;;0.40;0.30;;;;;;;5.59;68.71;100967.13;5024912;28;20449;-74
2022/04/19 03:31:35;;;;;;;0.40;0.30;;;;;;;5.54;68.66;100977.84;5034022;28;20463;-75
2022/04/19 03:34:03;;;;;;;0.40;0.30;;;;;;;5.55;68.87;100979.44;5032818;28;20450;-74
2022/04/19 03:36:29;;;;;;;0.40;0.30;;;;;;;5.46;69.22;100964.88;5033018;28;20466;-75
2022/04/19 03:38:56;;;;;;;0.40;0.30;;;;;;;5.41;69.05;100962.16;5034905;28;20466;-74
2022/04/19 03:41:23;;;;;;;0.40;0.30;;;;;;;5.28;69.38;100961.50;5034923;28;20470;-74
2022/04/19 03:43:51;;;;;;;0.40;0.30;;;;;;;5.32;70.32;100965.31;5034416;28;20467;-75
2022/04/19 03:46:18;;;;;;;0.40;0.30;;;;;;;5.36;71.11;100972.84;5034697;28;20490;-75
2022/04/19 03:48:45;;;;;;;0.40;0.30;;;;;;;5.31;70.96;100966.38;5033922;28;20860;-75
2022/04/19 03:51:11;;;;;;;0.40;0.30;;;;;;;5.27;71.73;100967.16;5032617;28;20482;-76
2022/04/19 03:53:38;;;;;;;0.40;0.30;;;;;;;5.27;70.95;100970.66;5033673;28;20462;-75
2022/04/19 03:56:05;;;;;;;0.40;0.30;;;;;;;5.27;71.47;100973.34;5034563;28;20443;-75
2022/04/19 03:58:33;;;;;;;0.40;0.30;;;;;;;5.36;70.96;100978.22;5032595;28;20479;-75
2022/04/19 04:01:01;;;;;;;0.40;0.30;;;;;;;5.36;71.68;100964.78;5033876;28;20467;-75
2022/04/19 04:03:28;;;;;;;0.40;0.30;;;;;;;5.38;71.65;100966.16;5033426;28;20833;-75
2022/04/19 04:05:55;;;;;;;0.40;0.30;;;;;;;5.37;71.46;100971.78;5030798;28;21087;-73
2022/04/19 04:08:22;;;;;;;0.50;0.40;;;;;;;5.31;71.56;100971.75;5029418;28;20577;-73
2022/04/19 04:10:48;;;;;;;0.40;0.30;;;;;;;5.37;72.19;100969.91;5029385;28;20468;-73
2022/04/19 04:13:14;;;;;;;0.40;0.30;;;;;;;5.36;70.59;100984.41;5033654;28;20471;-72
2022/04/19 04:15:42;;;;;;;0.40;0.30;;;;;;;5.22;70.37;100978.66;5033800;28;20880;-73
2022/04/19 04:18:09;;;;;;;0.40;0.30;;;;;;;5.25;70.89;100986.19;5033642;28;20486;-73
2022/04/19 04:20:35;;;;;;;0.40;0.30;;;;;;;5.20;70.97;100975.41;5026280;28;20834;-73
2022/04/19 04:23:02;;;;;;;0.40;0.30;;;;;;;5.10;71.10;100986.06;5032278;28;20953;-73
2022/04/19 04:25:28;;;;;;;0.40;0.30;;;;;;;5.13;71.33;100982.84;5033671;28;20466;-73
2022/04/19 04:27:55;;;;;;;0.40;0.30;;;;;;;5.17;70.87;100986.66;5032379;28;20482;-74
2022/04/19 04:30:21;;;;;;;0.40;0.30;;;;;;;5.02;71.25;100975.78;5032275;28;20474;-73
2022/04/19 04:32:50;;;;;;;0.40;0.30;;;;;;;4.89;73.31;100968.13;5033975;28;20582;-74
2022/04/19 04:35:16;;;;;;;0.40;0.30;;;;;;;4.95;73.24;100970.59;5031297;28;20460;-73
2022/04/19 04:37:43;;;;;;;0.40;0.30;;;;;;;4.81;73.45;100967.53;5030834;28;20494;-74
2022/04/19 04:40:10;;;;;;;0.40;0.30;;;;;;;4.95;73.92;100975.16;5030660;28;20521;-72
2022/04/19 04:42:37;;;;;;;0.40;0.30;;;;;;;5.04;74.55;100979.00;5033681;28;20468;-73
2022/04/19 04:45:04;;;;;;;0.40;0.30;;;;;;;5.04;75.35;100979.00;5032979;28;20466;-73
2022/04/19 04:50:16;;;;;;;0.40;0.30;;;;;;;5.13;76.55;100980.16;5029418;28;20812;-74
2022/04/19 04:52:42;;;;;;;0.40;0.30;;;;;;;5.20;76.30;100988.03;5033741;28;20462;-74
2022/04/19 04:55:09;;;;;;;0.40;0.30;;;;;;;5.25;76.70;100980.81;5030634;28;20499;-75
2022/04/19 04:57:35;;;;;;;0.40;0.30;;;;;;;5.26;76.51;100992.38;5034597;28;20469;-74
2022/04/19 05:00:02;;;;;;;0.40;0.30;;;;;;;5.34;76.85;100991.09;5032004;28;20466;-75
2022/04/19 05:02:29;;;;;;;0.40;0.30;;;;;;;5.37;76.83;100993.28;5031663;28;20495;-75
2022/04/19 05:04:55;;;;;;;0.40;0.30;;;;;;;5.31;77.10;100989.72;5033574;28;20499;-74
2022/04/19 05:07:23;;;;;;;0.40;0.30;;;;;;;5.37;77.60;100987.91;5031198;28;20487;-74
2022/04/19 05:09:50;;;;;;;0.40;0.40;;;;;;;5.36;77.41;100986.25;5031260;28;21063;-75
2022/04/19 05:12:16;;;;;;;0.40;0.30;;;;;;;5.39;76.92;100994.63;5032211;28;21015;-74
2022/04/19 05:14:43;;;;;;;0.40;0.40;;;;;;;5.48;77.04;100989.59;5031579;28;20463;-74
2022/04/19 05:17:10;;;;;;;0.40;0.30;;;;;;;5.48;76.63;100989.59;5032298;28;20479;-75
2022/04/19 05:19:36;;;;;;;0.40;0.30;;;;;;;5.47;76.54;100988.78;5030879;28;20979;-73
2022/04/19 05:22:03;;;;;;;0.40;0.30;;;;;;;5.52;76.83;100991.50;5032156;28;20462;-72
2022/04/19 05:24:31;;;;;;;0.40;0.30;;;;;;;5.63;76.51;100984.34;5033184;28;20463;-74
2022/04/19 05:26:57;;;;;;;0.40;0.30;;;;;;;5.60;76.88;100982.16;5030664;28;20491;-74
2022/04/19 05:29:23;;;;;;;0.40;0.30;;;;;;;5.70;77.16;100987.59;5033822;28;20833;-74
2022/04/19 05:31:50;;;;;;;2.57;2.47;;;;;;;5.76;76.99;100986.59;5031903;28;20463;-74
2022/04/19 05:34:17;;;;;;;0.40;0.30;;;;;;;5.78;76.66;100991.69;5030388;28;20468;-75
2022/04/19 05:36:43;;;;;;;0.40;0.30;;;;;;;5.82;76.18;100985.53;5032486;28;20483;-75
2022/04/19 05:39:09;;;;;;;0.40;0.30;;;;;;;5.91;76.33;100990.44;5031095;28;20811;-74
2022/04/19 05:41:39;;;;;;;0.40;0.30;;;;;;;5.92;76.28;101000.94;5030128;28;20466;-71
2022/04/19 05:44:06;;;;;;;0.40;0.30;;;;;;;5.98;76.25;100997.25;5033791;28;20509;-72
2022/04/19 05:46:32;;;;;;;0.40;0.30;;;;;;;6.07;76.42;101002.94;5029779;28;21018;-76
2022/04/19 05:49:00;;;;;;;0.40;0.30;;;;;;;6.10;76.27;101006.97;5033182;28;20471;-76
2022/04/19 05:51:27;;;;;;;0.40;0.30;;;;;;;6.19;76.31;101006.22;5032730;28;20529;-77
2022/04/19 05:53:53;;;;;;;0.40;0.30;;;;;;;6.28;76.43;100999.25;5032242;28;20486;-77
2022/04/19 05:56:19;;;;;;;0.40;0.30;;;;;;;6.40;76.08;101003.63;5028447;28;20463;-76
2022/04/19 05:58:47;;;;;;;0.40;0.30;;;;;;;6.46;75.02;101016.03;5033101;28;20479;-76
2022/04/19 06:01:14;;;;;;;0.40;0.30;;;;;;;6.33;74.57;101009.25;5031468;28;20521;-76
2022/04/19 06:06:24;;;;;;;0.40;0.30;;;;;;;6.57;74.85;101005.03;5029228;28;20477;-77
2022/04/19 06:08:51;;;;;;;0.40;0.30;;;;;;;6.57;73.61;101005.03;5033365;28;20478;-77
2022/04/19 06:11:17;;;;;;;0.40;0.30;;;;;;;6.69;74.13;101007.50;5028428;28;20964;-77
2022/04/19 06:13:44;;;;;;;0.40;0.30;;;;;;;6.77;74.14;101004.31;5032690;28;21075;-77
2022/04/19 06:16:12;;;;;;;0.40;0.30;;;;;;;6.83;73.00;101005.94;5032426;28;20466;-77
2022/04/19 06:18:38;;;;;;;0.40;0.30;;;;;;;6.83;71.62;101005.13;5032825;28;20494;-77
2022/04/19 06:21:05;;;;;;;0.40;0.30;;;;;;;6.94;71.71;101008.66;5032554;28;20505;-77
2022/04/19 06:23:32;;;;;;;0.40;0.30;;;;;;;7.02;71.04;101002.75;5032284;28;20471;-74
2022/04/19 06:25:59;;;;;;;0.40;0.30;;;;;;;6.97;69.66;101011.63;5030501;28;20455;-75
2022/04/19 06:28:25;;;;;;;0.40;0.30;;;;;;;6.93;69.85;101009.72;5031353;28;20483;-76
2022/04/19 06:30:52;;;;;;;0.40;0.30;;;;;;;6.99;69.21;101000.56;5031512;28;20550;-75
2022/04/19 06:33:19;;;;;;;0.40;0.30;;;;;;;7.12;68.82;101002.75;5032865;28;20474;-76
2022/04/19 06:35:47;;;;;;;0.40;0.33;;;;;;;7.15;68.77;101006.81;5030922;28;20967;-75
2022/04/19 06:38:13;;;;;;;0.40;0.30;;;;;;;7.23;69.45;101006.28;5032296;28;20505;-76
2022/04/19 06:40:40;;;;;;;0.40;0.30;;;;;;;7.34;67.51;101011.38;5031471;28;20470;-76
2022/04/19 06:43:06;;;;;;;0.40;0.30;;;;;;;7.43;67.82;101005.47;5031187;28;20455;-73
2022/04/19 06:45:33;;;;;;;0.40;0.30;;;;;;;7.59;68.34;101007.91;5031039;28;20474;-75
2022/04/19 06:48:01;;;;;;;0.40;0.30;;;;;;;7.77;67.90;101011.91;5033013;28;20491;-75
2022/04/19 06:50:29;;;;;;;0.40;0.30;;;;;;;7.83;67.61;101008.16;5034155;28;20473;-73
2022/04/19 06:52:56;;;;;;;0.40;0.30;;;;;;;7.92;65.24;101007.59;5036602;28;20461;-74
2022/04/19 06:55:23;;;;;;;0.40;0.30;;;;;;;7.98;65.33;101020.00;5033239;28;20577;-75
2022/04/19 06:57:50;;;;;;;0.40;0.30;;;;;;;8.08;64.92;101019.97;5036081;28;20486;-75
2022/04/19 07:00:18;;;;;;;0.40;0.30;;;;;;;8.15;64.39;101023.19;5033641;28;20487;-76
2022/04/19 07:02:45;;;;;;;0.40;0.30;;;;;;;8.25;63.53;101033.97;5034806;28;20811;-76
2022/04/19 07:05:11;;;;;;;0.40;0.30;;;;;;;8.34;63.29;101031.50;5038638;28;20517;-76
2022/04/19 07:07:42;;;;;;;0.40;0.30;;;;;;;8.40;63.98;101035.81;5036338;28;20855;-76
2022/04/19 07:10:10;;;;;;;0.40;0.30;;;;;;;8.43;63.18;101026.38;5034541;28;20495;-75
2022/04/19 07:12:37;;;;;;;0.40;0.30;;;;;;;8.51;61.48;101032.00;5031472;28;20468;-76
2022/04/19 07:15:04;;;;;;;0.40;0.30;;;;;;;8.55;61.29;101022.28;5034253;28;20459;-76
2022/04/19 07:17:31;;;;;;;0.40;0.30;;;;;;;8.61;59.71;101025.75;5035496;28;20493;-74
2022/04/19 07:28:14;;;;;;;0.40;0.30;;;;;;;8.67;58.19;101032.75;5035314;28;20544;-74
2022/04/19 07:30:40;;;;;;;0.40;0.30;;;;;;;8.77;58.38;101030.00;5033781;28;20499;-74
2022/04/19 07:33:07;;;;;;;1.83;1.73;;;;;;;8.76;57.51;101031.06;5034327;28;20466;-75
2022/04/19 07:35:34;;;;;;;1.07;0.97;;;;;;;8.84;57.02;101033.19;5034024;28;20983;-75
2022/04/19 07:38:02;;;;;;;0.40;0.30;;;;;;;8.97;57.34;101028.28;5035623;28;20553;-76
2022/04/19 07:40:30;;;;;;;0.40;0.30;;;;;;;9.19;57.60;101027.88;5034419;28;20542;-75
2022/04/19 07:42:56;;;;;;;0.40;0.30;;;;;;;9.30;55.22;101030.22;5033213;28;20459;-75
2022/04/19 07:45:23;;;;;;;0.40;0.30;;;;;;;9.44;55.44;101027.69;5033548;28;20542;-74
2022/04/19 07:47:49;;;;;;;8.13;4.43;;;;;;;9.63;55.36;101032.41;5034599;28;20498;-74
2022/04/19 07:50:15;;;;;;;0.50;0.30;;;;;;;9.72;54.81;101031.50;5024743;28;20471;-75
2022/04/19 07:52:42;;;;;;;0.40;0.30;;;;;;;9.79;54.32;101032.00;5032963;28;20899;-70
2022/04/19 07:55:10;;;;;;;0.40;0.30;;;;;;;9.77;52.01;101028.75;5033805;28;20979;-72
2022/04/19 07:57:37;;;;;;;0.40;0.30;;;;;;;9.91;53.13;101036.22;5033730;28;20488;-73
2022/04/19 08:00:04;;;;;;;0.40;0.30;;;;;;;9.91;51.97;101034.31;5021225;28;20464;-73
2022/04/19 08:02:31;;;;;;;0.40;0.30;;;;;;;9.92;50.63;101035.94;5031109;28;20965;-73
2022/04/19 08:04:58;;;;;;;0.40;0.30;;;;;;;10.01;51.09;101031.53;5034871;28;20535;-73
2022/04/19 08:07:24;;;;;;;0.40;0.30;;;;;;;9.96;51.39;101025.34;5034346;28;20495;-72
2022/04/19 08:09:51;;;;;;;0.40;0.30;;;;;;;10.01;51.79;101019.91;5034329;28;20871;-73
2022/04/19 08:12:19;;;;;;;0.40;0.30;;;;;;;10.12;52.17;101024.09;5028727;28;20484;-73
2022/04/19 08:14:45;;;;;;;0.40;0.30;;;;;;;10.14;52.28;101024.63;5030654;28;20455;-73
2022/04/19 08:17:12;;;;;;;0.40;0.30;;;;;;;10.16;51.65;101027.03;5030398;28;20483;-73
2022/04/19 08:19:38;;;;;;;0.40;0.30;;;;;;;10.27;50.94;101021.28;5033751;28;20463;-73
2022/04/19 08:22:05;;;;;;;0.40;0.30;;;;;;;10.15;48.12;101014.59;5030183;28;20509;-73
2022/04/19 08:24:31;;;;;;;0.40;0.30;;;;;;;10.20;49.95;101020.75;5028385;28;20464;-73
2022/04/19 08:26:57;;;;;;;0.40;0.30;;;;;;;10.27;49.04;101015.84;5031731;28;20495;-73
2022/04/19 08:29:26;;;;;;;0.67;0.67;;;;;;;10.39;49.66;101017.31;5033641;28;20528;-72
2022/04/19 08:31:53;;;;;;;0.40;0.20;;;;;;;10.59;51.18;101015.19;5032524;28;20832;-72
2022/04/19 08:34:19;;;;;;;0.40;0.30;;;;;;;10.75;51.37;101004.94;5031857;28;20463;-72
2022/04/19 08:36:46;;;;;;;0.40;0.30;;;;;;;10.87;50.37;101015.38;5035218;28;20467;-73
2022/04/19 08:39:13;;;;;;;0.40;0.30;;;;;;;10.93;48.31;101021.50;5032057;28;20491;-73
2022/04/19 08:41:40;;;;;;;0.40;0.30;;;;;;;11.03;48.47;101014.06;5032667;28;20467;-74
2022/04/19 08:44:08;;;;;;;0.40;0.30;;;;;;;11.17;47.58;101005.97;5031587;28;20459;-72
2022/04/19 08:46:38;;;;;;;0.40;0.30;;;;;;;11.19;47.79;101008.38;5031736;28;20470;-70
2022/04/19 08:49:05;;;;;;;0.40;0.30;;;;;;;11.20;46.68;101012.72;5031451;28;20466;-70
2022/04/19 08:51:35;;;;;;;0.63;0.63;;;;;;;11.32;47.16;101008.44;5032602;28;20491;-76
2022/04/19 08:59:31;;;;;;;0.40;0.30;;;;;;;11.73;46.20;101001.53;5033826;28;20454;-78
2022/04/19 09:01:59;;;;;;;0.40;0.30;;;;;;;11.78;45.06;101009.63;5036410;28;20462;-77
2022/04/19 09:04:27;;;;;;;0.40;0.30;;;;;;;11.86;46.95;101007.06;5036942;28;20467;-77
2022/04/19 09:06:55;;;;;;;0.40;0.30;;;;;;;11.94;45.47;101013.69;5033028;28;20569;-77
2022/04/19 09:09:23;;;;;;;0.40;0.30;;;;;;;12.02;46.10;101020.31;5033471;28;20455;-72
2022/04/19 09:11:49;;;;;;;0.40;0.30;;;;;;;12.01;44.62;101024.97;5028669;28;21205;-74
2022/04/19 09:14:17;;;;;;;0.40;0.30;;;;;;;12.10;47.42;101019.63;5031552;28;20467;-78
2022/04/19 09:16:44;;;;;;;0.40;0.30;;;;;;;12.16;45.50;101017.63;5033679;28;20491;-72
2022/04/19 09:19:26;;;;;;;0.40;0.30;;;;;;;12.24;45.91;101015.00;5032761;28;20451;-75
2022/04/19 09:21:53;;;;;;;0.40;0.30;;;;;;;12.33;46.52;101032.22;5029748;28;20489;-73
2022/04/19 09:24:20;;;;;;;0.40;0.30;;;;;;;12.36;44.32;101020.75;5031075;28;20472;-74
2022/04/19 09:26:48;;;;;;;0.40;0.30;;;;;;;12.38;44.71;101023.97;5033201;28;20483;-75
2022/04/19 09:29:21;;;;;;;0.40;0.30;;;;;;;12.41;44.92;101021.78;5029087;28;20948;-75
2022/04/19 09:31:51;;;;;;;0.40;0.30;;;;;;;12.52;45.21;101025.88;5030022;28;20490;-77
2022/04/19 09:34:28;;;;;;;0.40;0.30;;;;;;;12.58;45.51;101016.53;5030299;28;20455;-76
2022/04/19 09:37:06;;;;;;;0.40;0.30;;;;;;;12.67;46.19;101016.63;5032327;28;20517;-76
2022/04/19 09:39:34;;;;;;;0.40;0.30;;;;;;;12.66;45.17;101020.41;5028067;28;20455;-77
2022/04/19 09:42:01;;;;;;;0.40;0.30;;;;;;;12.70;44.90;101018.69;5032217;28;20463;-76
2022/04/19 09:44:29;;;;;;;0.40;0.30;;;;;;;12.66;44.88;101023.97;5033545;28;20852;-77
2022/04/19 09:47:06;;;;;;;4.37;4.03;;;;;;;12.77;46.25;101024.53;5029808;28;20497;-76
2022/04/19 09:49:44;;;;;;;0.40;0.30;;;;;;;12.77;45.36;101014.47;5030709;28;20454;-78
2022/04/19 09:52:14;;;;;;;0.40;0.30;;;;;;;12.76;44.70;101021.03;5030714;28;20498;-76
2022/04/19 09:54:41;;;;;;;0.40;0.30;;;;;;;12.87;44.91;101008.81;5029772;28;20886;-76
2022/04/19 09:57:09;;;;;;;0.40;0.30;;;;;;;12.99;46.25;101013.72;5030457;28;20570;-77
2022/04/19 09:59:43;;;;;;;0.40;0.30;;;;;;;12.99;42.43;101002.03;5032366;28;20461;-78
2022/04/19 10:10:25;;;;;;;0.40;0.30;;;;;;;13.52;43.70;101006.78;5029389;28;20458;-77
2022/04/19 10:12:53;;;;;;;0.40;0.30;;;;;;;13.57;41.47;101009.38;5030364;28;20466;-77
2022/04/19 10:15:22;;;;;;;0.40;0.30;;;;;;;13.53;40.89;101011.13;5026033;28;20828;-76
2022/04/19 10:17:49;;;;;;;0.40;0.30;;;;;;;13.49;41.17;101005.47;5033345;28;20475;-74
2022/04/19 10:20:17;;;;;;;0.40;0.30;;;;;;;13.45;40.31;101009.13;5030055;28;20467;-76
2022/04/19 10:22:47;;;;;;;0.40;0.30;;;;;;;13.54;41.67;101004.56;5025381;28;20467;-75
2022/04/19 10:25:14;;;;;;;0.53;0.50;;;;;;;13.63;41.13;100998.06;5020541;28;20468;-75
2022/04/19 10:27:42;;;;;;;0.40;0.30;;;;;;;13.76;42.76;101004.53;5022825;28;20519;-74
2022/04/19 10:30:17;;;;;;;0.40;0.30;;;;;;;13.98;41.65;101005.59;5026563;28;20466;-75
2022/04/19 10:32:44;;;;;;;0.40;0.30;;;;;;;14.18;40.21;101001.53;5022469;28;20463;-74
2022/04/19 10:35:12;;;;;;;0.40;0.30;;;;;;;14.39;41.85;101008.81;5024030;28;20459;-74
2022/04/19 10:37:42;;;;;;;0.40;0.30;;;;;;;14.49;39.16;100996.06;5024734;28;20572;-75
2022/04/19 10:40:12;;;;;;;0.40;0.20;;;;;;;14.53;40.99;101006.00;5030128;28;20539;-74
2022/04/19 10:42:42;;;;;;;0.40;0.30;;;;;;;14.72;39.62;100999.47;5017202;28;21014;-72
2022/04/19 10:45:25;;;;;;;0.40;0.30;;;;;;;15.02;40.69;101003.97;5029977;28;20463;-75
2022/04/19 10:48:06;;;;;;;0.40;0.30;;;;;;;15.21;39.73;101000.94;5027769;28;20487;-77
2022/04/19 10:50:34;;;;;;;0.40;0.30;;;;;;;15.16;38.57;100992.09;5027392;28;20509;-75
2022/04/19 10:53:03;;;;;;;0.40;0.23;;;;;;;15.01;39.42;101001.59;5030888;28;20461;-74
2022/04/19 10:55:31;;;;;;;0.40;0.30;;;;;;;14.85;38.96;100993.84;5021152;28;20502;-75
2022/04/19 10:58:12;;;;;;;0.40;0.30;;;;;;;14.83;39.00;101001.56;5026953;28;21012;-75
2022/04/19 11:00:55;;;;;;;0.40;0.30;;;;;;;14.93;40.79;100995.00;5030460;28;20470;-74
2022/04/19 11:03:40;;;;;;;0.40;0.30;;;;;;;15.10;37.97;100994.19;5029051;28;20458;-76
2022/04/19 11:06:09;;;;;;;0.40;0.27;;;;;;;15.60;39.63;100996.38;5029035;28;20493;-73
2022/04/19 11:08:38;;;;;;;0.40;0.30;;;;;;;16.17;39.05;100987.88;5030116;28;20501;-74
2022/04/19 11:11:21;;;;;;;0.40;0.30;;;;;;;16.42;38.19;101007.19;5029727;28;20467;-76
2022/04/19 11:14:20;;;;;;;0.40;0.30;;;;;;;16.35;35.15;101005.78;5032546;28;20463;-78
2022/04/19 11:16:50;;;;;;;0.40;0.20;;;;;;;15.94;35.00;100997.44;5028965;28;21018;-75
2022/04/19 11:19:19;;;;;;;0.40;0.30;;;;;;;15.43;37.05;101001.88;5021945;28;20463;-74
2022/04/19 11:21:52;;;;;;;0.40;0.30;;;;;;;15.75;37.94;101011.47;5028845;28;20473;-75
2022/04/19 11:24:55;;;;;;;0.40;0.30;;;;;;;16.25;34.73;100995.22;5030773;28;20466;-75
2022/04/19 11:27:24;;;;;;;0.40;0.30;;;;;;;16.02;36.53;101002.06;5026793;28;20532;-75
2022/04/19 11:29:51;;;;;;;0.40;0.20;;;;;;;16.41;35.76;101000.91;5028263;28;20470;-75
2022/04/19 11:32:22;;;;;;;0.40;0.30;;;;;;;17.90;33.63;101002.16;5029697;28;20944;-76
2022/04/19 11:34:58;;;;;;;0.40;0.27;;;;;;;18.59;32.73;101005.91;5032506;28;20470;-76
2022/04/19 11:37:25;;;;;;;0.40;0.30;;;;;;;19.42;33.25;100998.97;5032556;28;20509;-75
2022/04/19 11:48:09;;;;;;;0.40;0.30;;;;;;;19.97;32.97;101002.00;5028355;28;20557;-76
2022/04/19 11:50:36;;;;;;;0.40;0.20;;;;;;;20.72;33.10;101014.78;5045543;28;20457;-73
2022/04/19 11:53:03;;;;;;;0.40;0.30;;;;;;;20.19;31.75;101022.56;5036412;28;20876;-76
2022/04/19 11:55:29;;;;;;;0.40;0.20;;;;;;;19.97;32.66;101024.00;5030454;28;20971;-76
2022/04/19 11:58:05;;;;;;;0.40;0.30;;;;;;;20.03;31.07;101006.09;5030821;28;20475;-76
2022/04/19 12:00:32;;;;;;;0.40;0.30;;;;;;;20.19;30.74;101009.63;5032724;28;20957;-76
2022/04/19 12:03:01;;;;;;;0.40;0.30;;;;;;;20.44;31.63;101025.94;5033373;28;20474;-76
2022/04/19 12:05:28;;;;;;;0.40;0.30;;;;;;;19.44;31.37;101015.13;5030655;28;20459;-75
2022/04/19 12:07:55;;;;;;;0.40;0.20;;;;;;;18.94;32.57;101019.16;5032613;28;20495;-76
2022/04/19 12:10:22;;;;;;;0.40;0.30;;;;;;;18.11;33.80;101013.03;5036070;28;20516;-74
2022/04/19 12:12:49;;;;;;;0.40;0.30;;;;;;;17.23;34.12;101014.25;5034431;28;20470;-76
2022/04/19 12:15:41;;;;;;;0.40;0.30;;;;;;;16.65;35.65;101016.72;5030757;28;20462;-76
2022/04/19 12:18:09;;;;;;;0.40;0.30;;;;;;;16.38;36.06;101027.00;5032122;28;20479;-77
2022/04/19 12:20:46;;;;;;;0.40;0.30;;;;;;;16.06;36.09;101019.41;5030971;28;20463;-78
2022/04/19 12:23:19;;;;;;;0.40;0.20;;;;;;;15.82;36.62;101009.84;5023930;28;20465;-77